sensor_id;sensor_type;location;lat;lon;timestamp;P1;durP1;ratioP1;P2;durP2;ratioP2
46377;SDS011;32083;47.360;9.650;2022-09-16T01:37:32;6.30;;;5.78;;
46377;SDS011;32083;47.360;9.650;2022-09-16T01:40:51;7.10;;;5.55;;
46377;SDS011;32083;47.360;9.650;2022-09-16T01:46:37;8.38;;;5.15;;
46377;SDS011;32083;47.360;9.650;2022-09-16T01:49:54;6.20;;;5.60;;
46377;SDS011;32083;47.360;9.650;2022-09-16T01:55:38;6.85;;;5.45;;
46377;SDS011;32083;47.360;9.650;2022-09-16T01:58:52;5.90;;;5.40;;
46377;SDS011;32083;47.360;9.650;2022-09-16T02:07:56;6.03;;;5.43;;
46377;SDS011;32083;47.360;9.650;2022-09-16T02:10:57;6.57;;;5.95;;
46377;SDS011;32083;47.360;9.650;2022-09-16T02:16:29;7.57;;;6.22;;
46377;SDS011;32083;47.360;9.650;2022-09-16T02:19:24;8.48;;;6.03;;
46377;SDS011;32083;47.360;9.650;2022-09-16T02:25:18;7.57;;;6.88;;
46377;SDS011;32083;47.360;9.650;2022-09-16T02:27:58;7.35;;;6.65;;
46377;SDS011;32083;47.360;9.650;2022-09-16T02:30:40;11.52;;;8.30;;
46377;SDS011;32083;47.360;9.650;2022-09-16T02:33:39;7.25;;;6.47;;
46377;SDS011;32083;47.360;9.650;2022-09-16T02:45:13;7.45;;;6.70;;
46377;SDS011;32083;47.360;9.650;2022-09-16T02:51:12;6.35;;;5.75;;
46377;SDS011;32083;47.360;9.650;2022-09-16T03:00:19;7.55;;;6.60;;
46377;SDS011;32083;47.360;9.650;2022-09-16T06:37:43;10.23;;;7.55;;
46377;SDS011;32083;47.360;9.650;2022-09-16T06:40:43;8.98;;;7.47;;
46377;SDS011;32083;47.360;9.650;2022-09-16T06:43:18;9.68;;;8.68;;
46377;SDS011;32083;47.360;9.650;2022-09-16T06:49:08;9.85;;;7.93;;
46377;SDS011;32083;47.360;9.650;2022-09-16T06:52:11;9.18;;;8.02;;
46377;SDS011;32083;47.360;9.650;2022-09-16T06:55:35;7.97;;;7.17;;
46377;SDS011;32083;47.360;9.650;2022-09-16T06:58:40;12.55;;;7.68;;
46377;SDS011;32083;47.360;9.650;2022-09-16T07:01:30;15.05;;;13.23;;
46377;SDS011;32083;47.360;9.650;2022-09-16T07:04:19;8.75;;;7.07;;
46377;SDS011;32083;47.360;9.650;2022-09-16T07:06:51;8.45;;;7.55;;
46377;SDS011;32083;47.360;9.650;2022-09-16T07:09:39;7.72;;;7.03;;
46377;SDS011;32083;47.360;9.650;2022-09-16T07:12:36;8.50;;;6.05;;
46377;SDS011;32083;47.360;9.650;2022-09-16T07:15:01;8.50;;;7.55;;
46377;SDS011;32083;47.360;9.650;2022-09-16T07:17:27;8.20;;;6.35;;
46377;SDS011;32083;47.360;9.650;2022-09-16T07:19:54;6.80;;;6.10;;
46377;SDS011;32083;47.360;9.650;2022-09-16T07:22:19;5.75;;;4.80;;
46377;SDS011;32083;47.360;9.650;2022-09-16T07:24:45;5.72;;;5.13;;
46377;SDS011;32083;47.360;9.650;2022-09-16T07:27:11;6.22;;;5.22;;
46377;SDS011;32083;47.360;9.650;2022-09-16T07:29:36;6.53;;;4.55;;
46377;SDS011;32083;47.360;9.650;2022-09-16T07:32:02;7.30;;;5.57;;
46377;SDS011;32083;47.360;9.650;2022-09-16T07:34:28;11.85;;;5.65;;
46377;SDS011;32083;47.360;9.650;2022-09-16T07:36:54;7.05;;;5.20;;
46377;SDS011;32083;47.360;9.650;2022-09-16T07:39:21;51.40;;;9.15;;
46377;SDS011;32083;47.360;9.650;2022-09-16T07:41:46;5.13;;;4.63;;
46377;SDS011;32083;47.360;9.650;2022-09-16T07:44:13;5.68;;;3.80;;
46377;SDS011;32083;47.360;9.650;2022-09-16T07:46:40;5.18;;;4.03;;
46377;SDS011;32083;47.360;9.650;2022-09-16T07:49:07;3.72;;;3.42;;
46377;SDS011;32083;47.360;9.650;2022-09-16T07:51:34;6.30;;;3.60;;
46377;SDS011;32083;47.360;9.650;2022-09-16T07:54:01;10.98;;;3.40;;
46377;SDS011;32083;47.360;9.650;2022-09-16T07:56:31;2.63;;;2.38;;
46377;SDS011;32083;47.360;9.650;2022-09-16T07:58:58;3.75;;;3.10;;
46377;SDS011;32083;47.360;9.650;2022-09-16T08:01:25;5.50;;;3.08;;
46377;SDS011;32083;47.360;9.650;2022-09-16T08:03:52;5.40;;;2.85;;
46377;SDS011;32083;47.360;9.650;2022-09-16T08:06:20;6.68;;;4.03;;
46377;SDS011;32083;47.360;9.650;2022-09-16T08:08:51;11.73;;;3.92;;
46377;SDS011;32083;47.360;9.650;2022-09-16T08:11:18;7.55;;;4.25;;
46377;SDS011;32083;47.360;9.650;2022-09-16T08:13:44;4.88;;;3.17;;
46377;SDS011;32083;47.360;9.650;2022-09-16T08:16:14;9.70;;;4.07;;
46377;SDS011;32083;47.360;9.650;2022-09-16T08:18:44;18.60;;;5.70;;
46377;SDS011;32083;47.360;9.650;2022-09-16T08:21:11;5.03;;;3.45;;
46377;SDS011;32083;47.360;9.650;2022-09-16T08:23:39;4.20;;;3.67;;
46377;SDS011;32083;47.360;9.650;2022-09-16T08:26:05;7.72;;;3.92;;
46377;SDS011;32083;47.360;9.650;2022-09-16T08:28:33;6.50;;;3.85;;
46377;SDS011;32083;47.360;9.650;2022-09-16T08:31:00;7.75;;;3.88;;
46377;SDS011;32083;47.360;9.650;2022-09-16T08:33:26;10.05;;;4.05;;
46377;SDS011;32083;47.360;9.650;2022-09-16T08:38:27;6.20;;;3.50;;
46377;SDS011;32083;47.360;9.650;2022-09-16T08:40:55;6.78;;;3.63;;
46377;SDS011;32083;47.360;9.650;2022-09-16T08:46:20;20.65;;;6.18;;
46377;SDS011;32083;47.360;9.650;2022-09-16T08:51:58;7.95;;;3.00;;
46377;SDS011;32083;47.360;9.650;2022-09-16T08:54:36;5.13;;;3.00;;
46377;SDS011;32083;47.360;9.650;2022-09-16T08:57:16;3.70;;;2.45;;
46377;SDS011;32083;47.360;9.650;2022-09-16T09:02:37;5.57;;;3.08;;
46377;SDS011;32083;47.360;9.650;2022-09-16T09:08:19;7.03;;;3.33;;
46377;SDS011;32083;47.360;9.650;2022-09-16T09:11:02;4.72;;;2.42;;
46377;SDS011;32083;47.360;9.650;2022-09-16T09:16:44;4.00;;;2.83;;
46377;SDS011;32083;47.360;9.650;2022-09-16T09:19:33;4.38;;;3.40;;
46377;SDS011;32083;47.360;9.650;2022-09-16T09:25:30;4.15;;;2.95;;
46377;SDS011;32083;47.360;9.650;2022-09-16T09:37:27;4.30;;;3.30;;
46377;SDS011;32083;47.360;9.650;2022-09-16T09:40:15;5.72;;;2.88;;
46377;SDS011;32083;47.360;9.650;2022-09-16T09:50:49;4.68;;;3.05;;
46377;SDS011;32083;47.360;9.650;2022-09-16T09:53:18;4.63;;;3.00;;
46377;SDS011;32083;47.360;9.650;2022-09-16T09:58:43;4.95;;;3.63;;
46377;SDS011;32083;47.360;9.650;2022-09-16T10:01:32;6.40;;;3.90;;
46377;SDS011;32083;47.360;9.650;2022-09-16T10:04:12;5.50;;;3.45;;
46377;SDS011;32083;47.360;9.650;2022-09-16T10:06:39;4.35;;;3.55;;
46377;SDS011;32083;47.360;9.650;2022-09-16T10:09:30;5.60;;;4.10;;
46377;SDS011;32083;47.360;9.650;2022-09-16T10:12:08;4.45;;;3.42;;
46377;SDS011;32083;47.360;9.650;2022-09-16T10:15:02;3.70;;;3.30;;
46377;SDS011;32083;47.360;9.650;2022-09-16T10:17:31;4.22;;;3.65;;
46377;SDS011;32083;47.360;9.650;2022-09-16T10:20:01;4.97;;;4.03;;
46377;SDS011;32083;47.360;9.650;2022-09-16T10:22:33;5.38;;;3.80;;
46377;SDS011;32083;47.360;9.650;2022-09-16T10:25:42;4.30;;;3.63;;
46377;SDS011;32083;47.360;9.650;2022-09-16T10:28:19;6.32;;;3.47;;
46377;SDS011;32083;47.360;9.650;2022-09-16T10:31:23;4.15;;;3.53;;
46377;SDS011;32083;47.360;9.650;2022-09-16T10:34:26;4.35;;;3.10;;
46377;SDS011;32083;47.360;9.650;2022-09-16T10:37:16;3.85;;;3.25;;
46377;SDS011;32083;47.360;9.650;2022-09-16T10:39:53;6.20;;;3.55;;
46377;SDS011;32083;47.360;9.650;2022-09-16T10:42:22;5.15;;;3.47;;
46377;SDS011;32083;47.360;9.650;2022-09-16T10:44:50;4.30;;;3.03;;
46377;SDS011;32083;47.360;9.650;2022-09-16T10:47:20;4.38;;;3.30;;
46377;SDS011;32083;47.360;9.650;2022-09-16T10:49:50;5.68;;;3.42;;
46377;SDS011;32083;47.360;9.650;2022-09-16T10:52:29;4.07;;;3.50;;
46377;SDS011;32083;47.360;9.650;2022-09-16T10:54:56;4.78;;;3.35;;
46377;SDS011;32083;47.360;9.650;2022-09-16T10:57:45;6.97;;;3.95;;
46377;SDS011;32083;47.360;9.650;2022-09-16T11:02:49;4.78;;;3.13;;
46377;SDS011;32083;47.360;9.650;2022-09-16T11:05:38;4.20;;;3.35;;
46377;SDS011;32083;47.360;9.650;2022-09-16T11:11:04;4.93;;;2.90;;
46377;SDS011;32083;47.360;9.650;2022-09-16T11:13:59;5.95;;;3.58;;
46377;SDS011;32083;47.360;9.650;2022-09-16T11:16:52;4.50;;;2.67;;
46377;SDS011;32083;47.360;9.650;2022-09-16T11:19:36;5.32;;;3.63;;
46377;SDS011;32083;47.360;9.650;2022-09-16T11:22:37;3.50;;;3.05;;
46377;SDS011;32083;47.360;9.650;2022-09-16T11:30:39;3.03;;;2.42;;
46377;SDS011;32083;47.360;9.650;2022-09-16T11:36:04;2.92;;;2.50;;
46377;SDS011;32083;47.360;9.650;2022-09-16T11:38:49;4.72;;;3.08;;
46377;SDS011;32083;47.360;9.650;2022-09-16T11:41:40;5.00;;;2.90;;
46377;SDS011;32083;47.360;9.650;2022-09-16T11:49:51;3.92;;;2.80;;
46377;SDS011;32083;47.360;9.650;2022-09-16T12:00:47;4.95;;;2.97;;
46377;SDS011;32083;47.360;9.650;2022-09-16T12:05:45;5.13;;;3.50;;
46377;SDS011;32083;47.360;9.650;2022-09-16T12:11:04;4.38;;;3.20;;
46377;SDS011;32083;47.360;9.650;2022-09-16T12:13:36;5.05;;;3.40;;
46377;SDS011;32083;47.360;9.650;2022-09-16T12:16:12;6.00;;;3.78;;
46377;SDS011;32083;47.360;9.650;2022-09-16T12:18:45;4.45;;;3.60;;
46377;SDS011;32083;47.360;9.650;2022-09-16T12:24:22;4.43;;;4.03;;
46377;SDS011;32083;47.360;9.650;2022-09-16T12:29:54;5.20;;;4.00;;
46377;SDS011;32083;47.360;9.650;2022-09-16T12:37:53;7.38;;;4.47;;
46377;SDS011;32083;47.360;9.650;2022-09-16T12:40:20;5.05;;;4.50;;
46377;SDS011;32083;47.360;9.650;2022-09-16T12:43:09;8.45;;;5.68;;
46377;SDS011;32083;47.360;9.650;2022-09-16T12:48:24;6.32;;;4.55;;
46377;SDS011;32083;47.360;9.650;2022-09-16T12:57:08;6.20;;;5.57;;
46377;SDS011;32083;47.360;9.650;2022-09-16T13:02:26;4.97;;;4.20;;
46377;SDS011;32083;47.360;9.650;2022-09-16T13:04:59;5.60;;;4.50;;
46377;SDS011;32083;47.360;9.650;2022-09-16T13:07:38;5.85;;;4.32;;
46377;SDS011;32083;47.360;9.650;2022-09-16T13:10:06;7.15;;;5.68;;
46377;SDS011;32083;47.360;9.650;2022-09-16T13:12:51;5.07;;;4.10;;
46377;SDS011;32083;47.360;9.650;2022-09-16T13:15:23;5.00;;;4.45;;
46377;SDS011;32083;47.360;9.650;2022-09-16T13:20:46;7.07;;;6.30;;
46377;SDS011;32083;47.360;9.650;2022-09-16T13:23:19;7.15;;;5.82;;
46377;SDS011;32083;47.360;9.650;2022-09-16T13:33:47;7.78;;;6.07;;
46377;SDS011;32083;47.360;9.650;2022-09-16T13:38:55;6.47;;;5.80;;
46377;SDS011;32083;47.360;9.650;2022-09-16T13:43:54;9.90;;;5.95;;
46377;SDS011;32083;47.360;9.650;2022-09-16T13:46:27;4.40;;;2.30;;
46377;SDS011;32083;47.360;9.650;2022-09-16T13:51:27;2.65;;;1.88;;
46377;SDS011;32083;47.360;9.650;2022-09-16T13:53:55;4.15;;;1.58;;
46377;SDS011;32083;47.360;9.650;2022-09-16T13:59:13;2.75;;;1.90;;
46377;SDS011;32083;47.360;9.650;2022-09-16T14:08:06;3.78;;;2.78;;
46377;SDS011;32083;47.360;9.650;2022-09-16T14:10:23;3.75;;;1.98;;
46377;SDS011;32083;47.360;9.650;2022-09-16T14:13:15;2.90;;;2.33;;
46377;SDS011;32083;47.360;9.650;2022-09-16T14:15:47;3.25;;;2.25;;
46377;SDS011;32083;47.360;9.650;2022-09-16T14:18:20;2.88;;;2.45;;
46377;SDS011;32083;47.360;9.650;2022-09-16T14:23:25;3.38;;;2.35;;
46377;SDS011;32083;47.360;9.650;2022-09-16T14:25:51;3.13;;;2.70;;
46377;SDS011;32083;47.360;9.650;2022-09-16T14:28:21;2.90;;;2.53;;
46377;SDS011;32083;47.360;9.650;2022-09-16T14:30:52;3.35;;;2.33;;
46377;SDS011;32083;47.360;9.650;2022-09-16T14:33:23;3.08;;;2.00;;
46377;SDS011;32083;47.360;9.650;2022-09-16T14:36:06;2.70;;;2.38;;
46377;SDS011;32083;47.360;9.650;2022-09-16T14:38:53;2.42;;;2.22;;
46377;SDS011;32083;47.360;9.650;2022-09-16T14:46:38;1.95;;;1.48;;
46377;SDS011;32083;47.360;9.650;2022-09-16T14:49:08;2.92;;;2.67;;
46377;SDS011;32083;47.360;9.650;2022-09-16T14:51:35;3.55;;;2.78;;
46377;SDS011;32083;47.360;9.650;2022-09-16T14:54:03;2.95;;;2.55;;
46377;SDS011;32083;47.360;9.650;2022-09-16T14:56:29;2.70;;;2.42;;
46377;SDS011;32083;47.360;9.650;2022-09-16T14:58:55;4.10;;;2.60;;
46377;SDS011;32083;47.360;9.650;2022-09-16T15:01:25;2.85;;;2.40;;
46377;SDS011;32083;47.360;9.650;2022-09-16T15:06:40;3.55;;;2.50;;
46377;SDS011;32083;47.360;9.650;2022-09-16T15:09:19;2.75;;;2.55;;
46377;SDS011;32083;47.360;9.650;2022-09-16T15:12:01;3.15;;;2.20;;
46377;SDS011;32083;47.360;9.650;2022-09-16T15:14:28;3.70;;;2.85;;
46377;SDS011;32083;47.360;9.650;2022-09-16T15:16:58;4.00;;;2.70;;
46377;SDS011;32083;47.360;9.650;2022-09-16T15:19:28;3.63;;;3.33;;
46377;SDS011;32083;47.360;9.650;2022-09-16T15:22:01;4.57;;;3.28;;
46377;SDS011;32083;47.360;9.650;2022-09-16T15:24:29;3.05;;;2.67;;
46377;SDS011;32083;47.360;9.650;2022-09-16T15:26:57;4.35;;;2.80;;
46377;SDS011;32083;47.360;9.650;2022-09-16T15:29:26;3.78;;;3.47;;
46377;SDS011;32083;47.360;9.650;2022-09-16T15:32:05;4.18;;;3.53;;
46377;SDS011;32083;47.360;9.650;2022-09-16T15:35:00;3.42;;;3.00;;
46377;SDS011;32083;47.360;9.650;2022-09-16T15:37:45;21.83;;;12.02;;
46377;SDS011;32083;47.360;9.650;2022-09-16T15:40:27;13.55;;;8.00;;
46377;SDS011;32083;47.360;9.650;2022-09-16T15:45:43;7.50;;;6.80;;
46377;SDS011;32083;47.360;9.650;2022-09-16T15:48:21;5.53;;;5.03;;
46377;SDS011;32083;47.360;9.650;2022-09-16T15:50:49;4.85;;;4.30;;
46377;SDS011;32083;47.360;9.650;2022-09-16T15:55:58;6.15;;;3.88;;
46377;SDS011;32083;47.360;9.650;2022-09-16T16:00:59;5.25;;;4.40;;
46377;SDS011;32083;47.360;9.650;2022-09-16T16:06:09;5.72;;;4.60;;
46377;SDS011;32083;47.360;9.650;2022-09-16T16:08:41;8.55;;;5.80;;
46377;SDS011;32083;47.360;9.650;2022-09-16T16:13:36;5.55;;;5.05;;
46377;SDS011;32083;47.360;9.650;2022-09-16T16:16:05;6.85;;;5.55;;
46377;SDS011;32083;47.360;9.650;2022-09-16T16:18:32;6.72;;;5.72;;
46377;SDS011;32083;47.360;9.650;2022-09-16T16:21:06;8.10;;;5.78;;
46377;SDS011;32083;47.360;9.650;2022-09-16T16:23:34;6.38;;;5.20;;
46377;SDS011;32083;47.360;9.650;2022-09-16T16:26:01;5.75;;;5.20;;
46377;SDS011;32083;47.360;9.650;2022-09-16T16:28:28;5.90;;;5.30;;
46377;SDS011;32083;47.360;9.650;2022-09-16T16:31:06;8.90;;;6.70;;
46377;SDS011;32083;47.360;9.650;2022-09-16T16:33:32;9.68;;;8.70;;
46377;SDS011;32083;47.360;9.650;2022-09-16T16:35:58;11.77;;;8.32;;
46377;SDS011;32083;47.360;9.650;2022-09-16T16:38:25;8.88;;;6.60;;
46377;SDS011;32083;47.360;9.650;2022-09-16T16:40:51;6.75;;;6.22;;
46377;SDS011;32083;47.360;9.650;2022-09-16T16:43:16;9.55;;;7.80;;
46377;SDS011;32083;47.360;9.650;2022-09-16T16:45:42;9.50;;;6.50;;
46377;SDS011;32083;47.360;9.650;2022-09-16T16:48:08;8.02;;;6.20;;
46377;SDS011;32083;47.360;9.650;2022-09-16T16:50:35;8.32;;;7.47;;
46377;SDS011;32083;47.360;9.650;2022-09-16T16:53:01;8.07;;;7.28;;
46377;SDS011;32083;47.360;9.650;2022-09-16T16:55:27;7.90;;;6.78;;
46377;SDS011;32083;47.360;9.650;2022-09-16T16:57:53;8.40;;;5.80;;
46377;SDS011;32083;47.360;9.650;2022-09-16T17:00:19;6.82;;;6.13;;
46377;SDS011;32083;47.360;9.650;2022-09-16T17:02:45;8.85;;;5.50;;
46377;SDS011;32083;47.360;9.650;2022-09-16T17:05:12;7.72;;;6.70;;
46377;SDS011;32083;47.360;9.650;2022-09-16T17:07:38;7.97;;;5.60;;
46377;SDS011;32083;47.360;9.650;2022-09-16T17:10:04;12.75;;;6.32;;
46377;SDS011;32083;47.360;9.650;2022-09-16T17:12:30;8.15;;;7.35;;
46377;SDS011;32083;47.360;9.650;2022-09-16T17:14:56;8.43;;;7.63;;
46377;SDS011;32083;47.360;9.650;2022-09-16T17:17:22;10.27;;;9.25;;
46377;SDS011;32083;47.360;9.650;2022-09-16T17:19:48;8.80;;;7.63;;
46377;SDS011;32083;47.360;9.650;2022-09-16T17:22:13;12.27;;;9.30;;
46377;SDS011;32083;47.360;9.650;2022-09-16T17:24:40;9.25;;;8.13;;
46377;SDS011;32083;47.360;9.650;2022-09-16T17:27:06;9.48;;;8.57;;
46377;SDS011;32083;47.360;9.650;2022-09-16T17:29:32;9.15;;;8.00;;
46377;SDS011;32083;47.360;9.650;2022-09-16T17:31:57;10.75;;;9.65;;
46377;SDS011;32083;47.360;9.650;2022-09-16T17:34:26;8.82;;;8.02;;
46377;SDS011;32083;47.360;9.650;2022-09-16T17:36:52;10.65;;;8.05;;
46377;SDS011;32083;47.360;9.650;2022-09-16T17:39:19;9.25;;;7.63;;
46377;SDS011;32083;47.360;9.650;2022-09-16T17:41:46;8.05;;;7.07;;
46377;SDS011;32083;47.360;9.650;2022-09-16T17:44:13;8.05;;;7.25;;
46377;SDS011;32083;47.360;9.650;2022-09-16T17:46:41;7.95;;;6.85;;
46377;SDS011;32083;47.360;9.650;2022-09-16T17:49:17;8.93;;;8.05;;
46377;SDS011;32083;47.360;9.650;2022-09-16T17:51:46;8.20;;;6.63;;
46377;SDS011;32083;47.360;9.650;2022-09-16T17:54:12;6.97;;;6.10;;
46377;SDS011;32083;47.360;9.650;2022-09-16T17:56:39;8.82;;;6.75;;
46377;SDS011;32083;47.360;9.650;2022-09-16T17:59:07;7.65;;;6.95;;
46377;SDS011;32083;47.360;9.650;2022-09-16T18:01:33;8.80;;;7.68;;
46377;SDS011;32083;47.360;9.650;2022-09-16T18:03:59;11.63;;;8.50;;
46377;SDS011;32083;47.360;9.650;2022-09-16T18:06:26;8.48;;;7.63;;
46377;SDS011;32083;47.360;9.650;2022-09-16T18:08:55;10.07;;;9.07;;
46377;SDS011;32083;47.360;9.650;2022-09-16T18:11:24;12.98;;;11.55;;
46377;SDS011;32083;47.360;9.650;2022-09-16T18:13:55;11.95;;;10.75;;
46377;SDS011;32083;47.360;9.650;2022-09-16T18:16:22;13.30;;;12.00;;
46377;SDS011;32083;47.360;9.650;2022-09-16T18:18:49;11.88;;;10.57;;
46377;SDS011;32083;47.360;9.650;2022-09-16T18:21:17;10.80;;;9.75;;
46377;SDS011;32083;47.360;9.650;2022-09-16T18:23:44;10.57;;;9.48;;
46377;SDS011;32083;47.360;9.650;2022-09-16T18:26:13;11.90;;;10.23;;
46377;SDS011;32083;47.360;9.650;2022-09-16T18:28:40;10.85;;;8.07;;
46377;SDS011;32083;47.360;9.650;2022-09-16T18:31:09;11.20;;;10.00;;
46377;SDS011;32083;47.360;9.650;2022-09-16T18:33:36;11.27;;;9.05;;
46377;SDS011;32083;47.360;9.650;2022-09-16T18:36:06;14.85;;;11.48;;
46377;SDS011;32083;47.360;9.650;2022-09-16T18:38:40;9.20;;;8.30;;
46377;SDS011;32083;47.360;9.650;2022-09-16T18:41:11;13.45;;;12.13;;
46377;SDS011;32083;47.360;9.650;2022-09-16T18:43:39;7.82;;;7.07;;
46377;SDS011;32083;47.360;9.650;2022-09-16T18:48:33;7.10;;;6.38;;
46377;SDS011;32083;47.360;9.650;2022-09-16T18:50:59;9.05;;;8.13;;
46377;SDS011;32083;47.360;9.650;2022-09-16T18:53:25;9.65;;;8.65;;
46377;SDS011;32083;47.360;9.650;2022-09-16T18:55:52;7.03;;;6.07;;
46377;SDS011;32083;47.360;9.650;2022-09-16T18:58:19;7.75;;;7.05;;
46377;SDS011;32083;47.360;9.650;2022-09-16T19:00:45;9.10;;;8.20;;
46377;SDS011;32083;47.360;9.650;2022-09-16T19:03:15;6.80;;;6.15;;
46377;SDS011;32083;47.360;9.650;2022-09-16T19:05:42;5.68;;;4.95;;
46377;SDS011;32083;47.360;9.650;2022-09-16T19:08:18;6.50;;;5.88;;
46377;SDS011;32083;47.360;9.650;2022-09-16T19:10:44;7.55;;;6.20;;
46377;SDS011;32083;47.360;9.650;2022-09-16T19:13:10;8.57;;;7.60;;
46377;SDS011;32083;47.360;9.650;2022-09-16T19:15:36;7.78;;;7.05;;
46377;SDS011;32083;47.360;9.650;2022-09-16T19:18:02;7.00;;;6.30;;
46377;SDS011;32083;47.360;9.650;2022-09-16T19:20:28;6.63;;;6.03;;
46377;SDS011;32083;47.360;9.650;2022-09-16T19:22:54;6.15;;;5.55;;
46377;SDS011;32083;47.360;9.650;2022-09-16T19:25:20;7.75;;;5.63;;
46377;SDS011;32083;47.360;9.650;2022-09-16T19:27:46;7.32;;;5.35;;
46377;SDS011;32083;47.360;9.650;2022-09-16T19:30:12;6.55;;;5.68;;
46377;SDS011;32083;47.360;9.650;2022-09-16T19:32:38;5.88;;;5.28;;
46377;SDS011;32083;47.360;9.650;2022-09-16T19:35:04;6.68;;;5.72;;
46377;SDS011;32083;47.360;9.650;2022-09-16T19:37:30;6.85;;;6.15;;
46377;SDS011;32083;47.360;9.650;2022-09-16T19:39:56;7.13;;;6.47;;
46377;SDS011;32083;47.360;9.650;2022-09-16T19:42:22;7.18;;;6.05;;
46377;SDS011;32083;47.360;9.650;2022-09-16T19:44:48;8.35;;;6.93;;
46377;SDS011;32083;47.360;9.650;2022-09-16T19:47:14;7.82;;;6.40;;
46377;SDS011;32083;47.360;9.650;2022-09-16T19:49:40;6.60;;;5.95;;
46377;SDS011;32083;47.360;9.650;2022-09-16T19:52:06;6.22;;;5.63;;
46377;SDS011;32083;47.360;9.650;2022-09-16T19:54:32;6.72;;;5.93;;
46377;SDS011;32083;47.360;9.650;2022-09-16T19:56:58;6.65;;;6.05;;
46377;SDS011;32083;47.360;9.650;2022-09-16T19:59:24;8.32;;;5.65;;
46377;SDS011;32083;47.360;9.650;2022-09-16T20:01:50;7.50;;;5.38;;
46377;SDS011;32083;47.360;9.650;2022-09-16T20:04:16;5.57;;;4.85;;
46377;SDS011;32083;47.360;9.650;2022-09-16T20:06:44;5.60;;;4.80;;
46377;SDS011;32083;47.360;9.650;2022-09-16T20:09:11;8.02;;;5.32;;
46377;SDS011;32083;47.360;9.650;2022-09-16T20:11:38;5.57;;;4.55;;
46377;SDS011;32083;47.360;9.650;2022-09-16T20:14:16;5.60;;;4.38;;
46377;SDS011;32083;47.360;9.650;2022-09-16T20:16:44;7.53;;;5.43;;
46377;SDS011;32083;47.360;9.650;2022-09-16T20:19:11;5.78;;;5.07;;
46377;SDS011;32083;47.360;9.650;2022-09-16T20:21:38;4.75;;;4.35;;
46377;SDS011;32083;47.360;9.650;2022-09-16T20:24:06;6.15;;;3.97;;
46377;SDS011;32083;47.360;9.650;2022-09-16T20:26:34;9.48;;;4.97;;
46377;SDS011;32083;47.360;9.650;2022-09-16T20:29:00;6.15;;;5.07;;
46377;SDS011;32083;47.360;9.650;2022-09-16T20:31:28;7.47;;;5.03;;
46377;SDS011;32083;47.360;9.650;2022-09-16T20:33:57;5.35;;;4.45;;
46377;SDS011;32083;47.360;9.650;2022-09-16T20:36:24;5.45;;;4.57;;
46377;SDS011;32083;47.360;9.650;2022-09-16T20:38:51;8.57;;;4.80;;
46377;SDS011;32083;47.360;9.650;2022-09-16T20:41:23;6.05;;;3.55;;
46377;SDS011;32083;47.360;9.650;2022-09-16T20:43:51;4.43;;;4.03;;
46377;SDS011;32083;47.360;9.650;2022-09-16T20:46:18;4.03;;;3.55;;
46377;SDS011;32083;47.360;9.650;2022-09-16T20:48:46;5.88;;;4.30;;
46377;SDS011;32083;47.360;9.650;2022-09-16T20:51:17;5.45;;;3.95;;
46377;SDS011;32083;47.360;9.650;2022-09-16T20:53:49;5.80;;;5.20;;
46377;SDS011;32083;47.360;9.650;2022-09-16T20:56:16;8.75;;;4.75;;
46377;SDS011;32083;47.360;9.650;2022-09-16T20:58:42;5.28;;;4.78;;
46377;SDS011;32083;47.360;9.650;2022-09-16T21:03:39;5.72;;;4.55;;
46377;SDS011;32083;47.360;9.650;2022-09-16T21:06:07;7.35;;;3.70;;
46377;SDS011;32083;47.360;9.650;2022-09-16T21:08:35;7.22;;;4.32;;
46377;SDS011;32083;47.360;9.650;2022-09-16T21:13:38;5.18;;;4.40;;
46377;SDS011;32083;47.360;9.650;2022-09-16T21:16:09;5.18;;;4.47;;
46377;SDS011;32083;47.360;9.650;2022-09-16T21:18:37;4.75;;;4.35;;
46377;SDS011;32083;47.360;9.650;2022-09-16T21:21:13;6.38;;;4.25;;
46377;SDS011;32083;47.360;9.650;2022-09-16T21:23:41;4.00;;;3.60;;
46377;SDS011;32083;47.360;9.650;2022-09-16T21:26:13;4.70;;;4.10;;
46377;SDS011;32083;47.360;9.650;2022-09-16T21:28:41;5.20;;;3.85;;
46377;SDS011;32083;47.360;9.650;2022-09-16T21:31:09;6.22;;;4.13;;
46377;SDS011;32083;47.360;9.650;2022-09-16T21:33:37;5.35;;;4.10;;
46377;SDS011;32083;47.360;9.650;2022-09-16T21:36:05;6.20;;;3.88;;
46377;SDS011;32083;47.360;9.650;2022-09-16T21:38:32;4.50;;;3.97;;
46377;SDS011;32083;47.360;9.650;2022-09-16T21:40:59;5.55;;;4.20;;
46377;SDS011;32083;47.360;9.650;2022-09-16T21:43:29;7.45;;;4.28;;
46377;SDS011;32083;47.360;9.650;2022-09-16T21:46:01;4.07;;;3.50;;
46377;SDS011;32083;47.360;9.650;2022-09-16T21:48:28;8.25;;;4.30;;
46377;SDS011;32083;47.360;9.650;2022-09-16T21:51:03;5.75;;;5.25;;
46377;SDS011;32083;47.360;9.650;2022-09-16T21:53:31;7.80;;;5.85;;
46377;SDS011;32083;47.360;9.650;2022-09-16T21:56:03;6.00;;;5.40;;
46377;SDS011;32083;47.360;9.650;2022-09-16T21:58:30;6.70;;;4.45;;
46377;SDS011;32083;47.360;9.650;2022-09-16T22:01:04;7.43;;;6.63;;
46377;SDS011;32083;47.360;9.650;2022-09-16T22:03:32;6.38;;;5.10;;
46377;SDS011;32083;47.360;9.650;2022-09-16T22:05:59;6.22;;;5.63;;
46377;SDS011;32083;47.360;9.650;2022-09-16T22:08:25;5.47;;;4.90;;
46377;SDS011;32083;47.360;9.650;2022-09-16T22:10:52;6.50;;;5.80;;
46377;SDS011;32083;47.360;9.650;2022-09-16T22:13:23;7.80;;;5.63;;
46377;SDS011;32083;47.360;9.650;2022-09-16T22:15:49;5.95;;;5.35;;
46377;SDS011;32083;47.360;9.650;2022-09-16T22:18:15;6.18;;;5.45;;
46377;SDS011;32083;47.360;9.650;2022-09-16T22:20:41;6.35;;;5.68;;
46377;SDS011;32083;47.360;9.650;2022-09-16T22:23:07;6.78;;;5.35;;
46377;SDS011;32083;47.360;9.650;2022-09-16T22:25:34;6.43;;;4.75;;
46377;SDS011;32083;47.360;9.650;2022-09-16T22:28:00;6.38;;;4.57;;
46377;SDS011;32083;47.360;9.650;2022-09-16T22:30:26;5.65;;;5.05;;
46377;SDS011;32083;47.360;9.650;2022-09-16T22:32:52;5.35;;;4.85;;
46377;SDS011;32083;47.360;9.650;2022-09-16T22:35:18;6.53;;;5.28;;
46377;SDS011;32083;47.360;9.650;2022-09-16T22:37:46;6.10;;;4.28;;
46377;SDS011;32083;47.360;9.650;2022-09-16T22:40:12;5.50;;;4.10;;
46377;SDS011;32083;47.360;9.650;2022-09-16T22:42:39;5.00;;;4.50;;
46377;SDS011;32083;47.360;9.650;2022-09-16T22:45:05;7.50;;;5.18;;
46377;SDS011;32083;47.360;9.650;2022-09-16T22:47:31;5.60;;;4.35;;
46377;SDS011;32083;47.360;9.650;2022-09-16T22:49:57;4.53;;;3.75;;
46377;SDS011;32083;47.360;9.650;2022-09-16T22:52:23;3.85;;;3.38;;
46377;SDS011;32083;47.360;9.650;2022-09-16T22:54:49;5.18;;;3.45;;
46377;SDS011;32083;47.360;9.650;2022-09-16T22:57:15;5.45;;;3.90;;
46377;SDS011;32083;47.360;9.650;2022-09-16T22:59:41;4.75;;;3.65;;
46377;SDS011;32083;47.360;9.650;2022-09-16T23:02:07;5.80;;;3.72;;
46377;SDS011;32083;47.360;9.650;2022-09-16T23:04:34;3.95;;;3.55;;
46377;SDS011;32083;47.360;9.650;2022-09-16T23:07:00;4.72;;;4.20;;
46377;SDS011;32083;47.360;9.650;2022-09-16T23:09:26;4.35;;;3.63;;
46377;SDS011;32083;47.360;9.650;2022-09-16T23:11:51;3.58;;;2.92;;
46377;SDS011;32083;47.360;9.650;2022-09-16T23:14:17;3.70;;;3.40;;
46377;SDS011;32083;47.360;9.650;2022-09-16T23:16:46;4.88;;;3.50;;
46377;SDS011;32083;47.360;9.650;2022-09-16T23:19:12;5.82;;;3.95;;
46377;SDS011;32083;47.360;9.650;2022-09-16T23:21:38;3.42;;;3.13;;
46377;SDS011;32083;47.360;9.650;2022-09-16T23:24:06;4.55;;;3.33;;
46377;SDS011;32083;47.360;9.650;2022-09-16T23:26:34;4.82;;;3.90;;
46377;SDS011;32083;47.360;9.650;2022-09-16T23:29:02;5.60;;;3.78;;
46377;SDS011;32083;47.360;9.650;2022-09-16T23:31:31;4.07;;;3.67;;
46377;SDS011;32083;47.360;9.650;2022-09-16T23:33:58;4.10;;;3.70;;
46377;SDS011;32083;47.360;9.650;2022-09-16T23:36:25;3.20;;;2.88;;
46377;SDS011;32083;47.360;9.650;2022-09-16T23:38:52;3.70;;;2.90;;
46377;SDS011;32083;47.360;9.650;2022-09-16T23:41:20;5.07;;;3.67;;